sensor_id;sensor_type;location;lat;lon;timestamp;P1;durP1;ratioP1;P2;durP2;ratioP2
56201;SDS011;42117;50.360;3.508;2023-04-03T00:00:27;12.50;;;7.72;;
56201;SDS011;42117;50.360;3.508;2023-04-03T00:02:53;13.82;;;8.25;;
56201;SDS011;42117;50.360;3.508;2023-04-03T00:05:19;13.30;;;7.13;;
56201;SDS011;42117;50.360;3.508;2023-04-03T00:07:45;10.87;;;7.47;;
56201;SDS011;42117;50.360;3.508;2023-04-03T00:10:11;10.07;;;7.95;;
56201;SDS011;42117;50.360;3.508;2023-04-03T00:12:38;13.95;;;8.30;;
56201;SDS011;42117;50.360;3.508;2023-04-03T00:15:05;12.88;;;7.95;;
56201;SDS011;42117;50.360;3.508;2023-04-03T00:17:31;11.80;;;8.07;;
56201;SDS011;42117;50.360;3.508;2023-04-03T00:19:57;11.82;;;8.27;;
56201;SDS011;42117;50.360;3.508;2023-04-03T00:22:23;12.20;;;7.80;;
56201;SDS011;42117;50.360;3.508;2023-04-03T00:24:51;12.73;;;8.32;;
56201;SDS011;42117;50.360;3.508;2023-04-03T00:27:17;12.85;;;8.50;;
56201;SDS011;42117;50.360;3.508;2023-04-03T00:29:43;11.60;;;7.50;;
56201;SDS011;42117;50.360;3.508;2023-04-03T00:32:09;11.73;;;7.65;;
56201;SDS011;42117;50.360;3.508;2023-04-03T00:34:35;12.83;;;8.43;;
56201;SDS011;42117;50.360;3.508;2023-04-03T00:37:01;12.40;;;7.50;;
56201;SDS011;42117;50.360;3.508;2023-04-03T00:39:27;11.05;;;7.75;;
56201;SDS011;42117;50.360;3.508;2023-04-03T00:41:53;11.55;;;7.53;;
56201;SDS011;42117;50.360;3.508;2023-04-03T00:44:20;11.10;;;7.88;;
56201;SDS011;42117;50.360;3.508;2023-04-03T00:46:46;14.93;;;7.60;;
56201;SDS011;42117;50.360;3.508;2023-04-03T00:49:12;11.90;;;7.72;;
56201;SDS011;42117;50.360;3.508;2023-04-03T00:51:38;13.32;;;7.82;;
56201;SDS011;42117;50.360;3.508;2023-04-03T00:54:05;12.00;;;8.10;;
56201;SDS011;42117;50.360;3.508;2023-04-03T00:56:32;15.02;;;7.70;;
56201;SDS011;42117;50.360;3.508;2023-04-03T00:59:03;13.57;;;7.80;;
56201;SDS011;42117;50.360;3.508;2023-04-03T01:01:30;14.23;;;8.15;;
56201;SDS011;42117;50.360;3.508;2023-04-03T01:03:58;11.38;;;7.38;;
56201;SDS011;42117;50.360;3.508;2023-04-03T01:06:26;12.05;;;7.75;;
56201;SDS011;42117;50.360;3.508;2023-04-03T01:08:52;11.05;;;7.13;;
56201;SDS011;42117;50.360;3.508;2023-04-03T01:11:18;12.23;;;7.50;;
56201;SDS011;42117;50.360;3.508;2023-04-03T01:13:46;11.65;;;8.32;;
56201;SDS011;42117;50.360;3.508;2023-04-03T01:16:12;20.27;;;8.10;;
56201;SDS011;42117;50.360;3.508;2023-04-03T01:18:38;11.85;;;7.35;;
56201;SDS011;42117;50.360;3.508;2023-04-03T01:21:26;13.82;;;7.47;;
56201;SDS011;42117;50.360;3.508;2023-04-03T01:26:24;10.10;;;7.80;;
56201;SDS011;42117;50.360;3.508;2023-04-03T01:28:50;14.73;;;7.53;;
56201;SDS011;42117;50.360;3.508;2023-04-03T01:31:20;10.05;;;7.45;;
56201;SDS011;42117;50.360;3.508;2023-04-03T01:33:48;13.43;;;8.05;;
56201;SDS011;42117;50.360;3.508;2023-04-03T01:36:15;12.98;;;8.43;;
56201;SDS011;42117;50.360;3.508;2023-04-03T01:38:42;13.82;;;8.23;;
56201;SDS011;42117;50.360;3.508;2023-04-03T01:41:08;14.50;;;8.65;;
56201;SDS011;42117;50.360;3.508;2023-04-03T01:43:34;11.10;;;7.47;;
56201;SDS011;42117;50.360;3.508;2023-04-03T01:46:00;13.77;;;8.18;;
56201;SDS011;42117;50.360;3.508;2023-04-03T01:48:26;12.55;;;8.98;;
56201;SDS011;42117;50.360;3.508;2023-04-03T01:50:52;14.35;;;8.27;;
56201;SDS011;42117;50.360;3.508;2023-04-03T01:53:19;13.80;;;8.77;;
56201;SDS011;42117;50.360;3.508;2023-04-03T01:55:45;13.73;;;8.63;;
56201;SDS011;42117;50.360;3.508;2023-04-03T01:58:11;13.93;;;7.93;;
56201;SDS011;42117;50.360;3.508;2023-04-03T02:00:37;12.40;;;8.13;;
56201;SDS011;42117;50.360;3.508;2023-04-03T02:03:03;12.95;;;8.27;;
56201;SDS011;42117;50.360;3.508;2023-04-03T02:05:29;11.38;;;8.45;;
56201;SDS011;42117;50.360;3.508;2023-04-03T02:07:55;11.40;;;7.03;;
56201;SDS011;42117;50.360;3.508;2023-04-03T02:10:21;12.05;;;7.72;;
56201;SDS011;42117;50.360;3.508;2023-04-03T02:12:47;13.93;;;8.37;;
56201;SDS011;42117;50.360;3.508;2023-04-03T02:15:13;10.80;;;7.78;;
56201;SDS011;42117;50.360;3.508;2023-04-03T02:17:39;12.43;;;7.78;;
56201;SDS011;42117;50.360;3.508;2023-04-03T02:20:05;10.27;;;7.55;;
56201;SDS011;42117;50.360;3.508;2023-04-03T02:22:31;12.23;;;7.57;;
56201;SDS011;42117;50.360;3.508;2023-04-03T02:24:57;10.43;;;7.15;;
56201;SDS011;42117;50.360;3.508;2023-04-03T02:27:24;12.40;;;7.53;;
56201;SDS011;42117;50.360;3.508;2023-04-03T02:29:50;12.00;;;7.65;;
56201;SDS011;42117;50.360;3.508;2023-04-03T02:32:16;10.77;;;7.60;;
56201;SDS011;42117;50.360;3.508;2023-04-03T02:34:42;10.02;;;7.05;;
56201;SDS011;42117;50.360;3.508;2023-04-03T02:37:08;12.60;;;7.37;;
56201;SDS011;42117;50.360;3.508;2023-04-03T02:39:34;11.38;;;7.30;;
56201;SDS011;42117;50.360;3.508;2023-04-03T02:42:00;10.95;;;8.13;;
56201;SDS011;42117;50.360;3.508;2023-04-03T02:44:26;11.07;;;8.13;;
56201;SDS011;42117;50.360;3.508;2023-04-03T02:46:52;13.63;;;8.32;;
56201;SDS011;42117;50.360;3.508;2023-04-03T02:49:18;10.82;;;8.02;;
56201;SDS011;42117;50.360;3.508;2023-04-03T02:51:45;13.13;;;7.15;;
56201;SDS011;42117;50.360;3.508;2023-04-03T02:54:11;11.73;;;8.27;;
56201;SDS011;42117;50.360;3.508;2023-04-03T02:56:37;11.77;;;7.83;;
56201;SDS011;42117;50.360;3.508;2023-04-03T02:59:05;12.05;;;7.85;;
56201;SDS011;42117;50.360;3.508;2023-04-03T03:01:31;14.60;;;8.43;;
56201;SDS011;42117;50.360;3.508;2023-04-03T03:03:58;13.43;;;8.90;;
56201;SDS011;42117;50.360;3.508;2023-04-03T03:06:25;15.05;;;8.40;;
56201;SDS011;42117;50.360;3.508;2023-04-03T03:08:51;14.32;;;8.02;;
56201;SDS011;42117;50.360;3.508;2023-04-03T03:11:17;16.40;;;8.73;;
56201;SDS011;42117;50.360;3.508;2023-04-03T03:13:43;14.63;;;8.10;;
56201;SDS011;42117;50.360;3.508;2023-04-03T03:16:09;11.63;;;8.25;;
56201;SDS011;42117;50.360;3.508;2023-04-03T03:18:35;16.55;;;8.57;;
56201;SDS011;42117;50.360;3.508;2023-04-03T03:21:01;15.70;;;8.05;;
56201;SDS011;42117;50.360;3.508;2023-04-03T03:23:29;12.20;;;8.17;;
56201;SDS011;42117;50.360;3.508;2023-04-03T03:25:59;12.52;;;8.65;;
56201;SDS011;42117;50.360;3.508;2023-04-03T03:28:26;15.07;;;8.23;;
56201;SDS011;42117;50.360;3.508;2023-04-03T03:30:52;13.38;;;8.15;;
56201;SDS011;42117;50.360;3.508;2023-04-03T03:33:18;13.70;;;7.90;;
56201;SDS011;42117;50.360;3.508;2023-04-03T03:35:44;13.57;;;8.43;;
56201;SDS011;42117;50.360;3.508;2023-04-03T03:38:11;12.35;;;7.95;;
56201;SDS011;42117;50.360;3.508;2023-04-03T03:40:37;12.63;;;8.33;;
56201;SDS011;42117;50.360;3.508;2023-04-03T03:43:03;12.38;;;8.80;;
56201;SDS011;42117;50.360;3.508;2023-04-03T03:45:29;12.25;;;8.60;;
56201;SDS011;42117;50.360;3.508;2023-04-03T03:47:56;14.00;;;8.75;;
56201;SDS011;42117;50.360;3.508;2023-04-03T03:50:22;11.48;;;8.15;;
56201;SDS011;42117;50.360;3.508;2023-04-03T03:52:48;14.80;;;8.70;;
56201;SDS011;42117;50.360;3.508;2023-04-03T03:55:14;12.13;;;8.02;;
56201;SDS011;42117;50.360;3.508;2023-04-03T03:57:40;14.27;;;9.15;;
56201;SDS011;42117;50.360;3.508;2023-04-03T04:00:06;15.02;;;8.85;;
56201;SDS011;42117;50.360;3.508;2023-04-03T04:02:33;16.85;;;8.90;;
56201;SDS011;42117;50.360;3.508;2023-04-03T04:04:59;16.08;;;9.43;;
56201;SDS011;42117;50.360;3.508;2023-04-03T04:07:25;16.25;;;8.68;;
56201;SDS011;42117;50.360;3.508;2023-04-03T04:09:53;16.25;;;8.85;;
56201;SDS011;42117;50.360;3.508;2023-04-03T04:12:19;15.77;;;9.32;;
56201;SDS011;42117;50.360;3.508;2023-04-03T04:14:45;19.63;;;11.07;;
56201;SDS011;42117;50.360;3.508;2023-04-03T04:17:12;13.85;;;8.75;;
56201;SDS011;42117;50.360;3.508;2023-04-03T04:19:39;16.02;;;9.00;;
56201;SDS011;42117;50.360;3.508;2023-04-03T04:22:04;18.40;;;10.50;;
56201;SDS011;42117;50.360;3.508;2023-04-03T04:24:31;18.13;;;10.25;;
56201;SDS011;42117;50.360;3.508;2023-04-03T04:26:57;17.25;;;8.88;;
56201;SDS011;42117;50.360;3.508;2023-04-03T04:29:23;13.05;;;8.48;;
56201;SDS011;42117;50.360;3.508;2023-04-03T04:31:53;16.15;;;8.73;;
56201;SDS011;42117;50.360;3.508;2023-04-03T04:34:19;14.38;;;8.70;;
56201;SDS011;42117;50.360;3.508;2023-04-03T04:36:45;16.05;;;9.43;;
56201;SDS011;42117;50.360;3.508;2023-04-03T04:39:11;13.23;;;8.40;;
56201;SDS011;42117;50.360;3.508;2023-04-03T04:41:37;18.33;;;9.77;;
56201;SDS011;42117;50.360;3.508;2023-04-03T04:44:03;15.60;;;8.63;;
56201;SDS011;42117;50.360;3.508;2023-04-03T04:46:29;12.57;;;8.77;;
56201;SDS011;42117;50.360;3.508;2023-04-03T04:48:55;17.38;;;9.13;;
56201;SDS011;42117;50.360;3.508;2023-04-03T04:51:21;16.38;;;9.80;;
56201;SDS011;42117;50.360;3.508;2023-04-03T04:53:47;15.55;;;10.07;;
56201;SDS011;42117;50.360;3.508;2023-04-03T04:56:13;13.73;;;9.57;;
56201;SDS011;42117;50.360;3.508;2023-04-03T04:58:39;13.30;;;8.70;;
56201;SDS011;42117;50.360;3.508;2023-04-03T05:01:06;10.68;;;8.55;;
56201;SDS011;42117;50.360;3.508;2023-04-03T05:03:33;14.32;;;8.77;;
56201;SDS011;42117;50.360;3.508;2023-04-03T05:05:59;12.32;;;9.40;;
56201;SDS011;42117;50.360;3.508;2023-04-03T05:08:25;12.80;;;9.38;;
56201;SDS011;42117;50.360;3.508;2023-04-03T05:10:51;14.18;;;9.43;;
56201;SDS011;42117;50.360;3.508;2023-04-03T05:13:18;15.98;;;9.95;;
56201;SDS011;42117;50.360;3.508;2023-04-03T05:15:44;13.97;;;9.83;;
56201;SDS011;42117;50.360;3.508;2023-04-03T05:18:10;17.63;;;9.40;;
56201;SDS011;42117;50.360;3.508;2023-04-03T05:20:36;18.40;;;9.00;;
56201;SDS011;42117;50.360;3.508;2023-04-03T05:23:02;19.13;;;9.35;;
56201;SDS011;42117;50.360;3.508;2023-04-03T05:25:28;14.80;;;9.70;;
56201;SDS011;42117;50.360;3.508;2023-04-03T05:27:54;16.33;;;9.70;;
56201;SDS011;42117;50.360;3.508;2023-04-03T05:30:21;17.33;;;9.15;;
56201;SDS011;42117;50.360;3.508;2023-04-03T05:32:47;14.57;;;8.70;;
56201;SDS011;42117;50.360;3.508;2023-04-03T05:35:13;17.83;;;9.63;;
56201;SDS011;42117;50.360;3.508;2023-04-03T05:37:40;14.13;;;9.27;;
56201;SDS011;42117;50.360;3.508;2023-04-03T05:40:06;14.95;;;8.80;;
56201;SDS011;42117;50.360;3.508;2023-04-03T05:42:32;12.00;;;8.77;;
56201;SDS011;42117;50.360;3.508;2023-04-03T05:44:58;14.60;;;8.82;;
56201;SDS011;42117;50.360;3.508;2023-04-03T05:47:24;12.82;;;9.07;;
56201;SDS011;42117;50.360;3.508;2023-04-03T05:49:51;13.03;;;8.23;;
56201;SDS011;42117;50.360;3.508;2023-04-03T05:52:23;18.05;;;9.13;;
56201;SDS011;42117;50.360;3.508;2023-04-03T05:54:51;16.10;;;9.40;;
56201;SDS011;42117;50.360;3.508;2023-04-03T05:57:17;15.32;;;9.43;;
56201;SDS011;42117;50.360;3.508;2023-04-03T05:59:44;16.73;;;9.38;;
56201;SDS011;42117;50.360;3.508;2023-04-03T06:02:11;14.48;;;9.65;;
56201;SDS011;42117;50.360;3.508;2023-04-03T06:04:37;16.42;;;8.77;;
56201;SDS011;42117;50.360;3.508;2023-04-03T06:07:03;13.23;;;8.50;;
56201;SDS011;42117;50.360;3.508;2023-04-03T06:09:29;15.63;;;8.75;;
56201;SDS011;42117;50.360;3.508;2023-04-03T06:11:56;17.13;;;9.60;;
56201;SDS011;42117;50.360;3.508;2023-04-03T06:14:24;13.33;;;8.60;;
56201;SDS011;42117;50.360;3.508;2023-04-03T06:16:50;12.02;;;8.45;;
56201;SDS011;42117;50.360;3.508;2023-04-03T06:19:16;15.30;;;8.57;;
56201;SDS011;42117;50.360;3.508;2023-04-03T06:21:42;15.10;;;8.20;;
56201;SDS011;42117;50.360;3.508;2023-04-03T06:24:09;15.13;;;8.05;;
56201;SDS011;42117;50.360;3.508;2023-04-03T06:26:35;13.23;;;7.15;;
56201;SDS011;42117;50.360;3.508;2023-04-03T06:29:02;11.73;;;6.78;;
56201;SDS011;42117;50.360;3.508;2023-04-03T06:31:28;68.75;;;25.55;;
56201;SDS011;42117;50.360;3.508;2023-04-03T06:33:54;13.47;;;6.40;;
56201;SDS011;42117;50.360;3.508;2023-04-03T06:36:21;10.43;;;6.43;;
56201;SDS011;42117;50.360;3.508;2023-04-03T06:38:47;9.85;;;7.03;;
56201;SDS011;42117;50.360;3.508;2023-04-03T06:41:13;12.20;;;6.10;;
56201;SDS011;42117;50.360;3.508;2023-04-03T06:43:41;8.10;;;6.15;;
56201;SDS011;42117;50.360;3.508;2023-04-03T06:46:11;11.52;;;6.72;;
56201;SDS011;42117;50.360;3.508;2023-04-03T06:48:38;9.15;;;6.20;;
56201;SDS011;42117;50.360;3.508;2023-04-03T06:51:04;9.65;;;6.18;;
56201;SDS011;42117;50.360;3.508;2023-04-03T06:53:30;10.82;;;6.25;;
56201;SDS011;42117;50.360;3.508;2023-04-03T06:55:56;7.43;;;5.85;;
56201;SDS011;42117;50.360;3.508;2023-04-03T06:58:22;8.93;;;6.13;;
56201;SDS011;42117;50.360;3.508;2023-04-03T07:00:48;9.25;;;5.80;;
56201;SDS011;42117;50.360;3.508;2023-04-03T07:03:15;8.00;;;5.93;;
56201;SDS011;42117;50.360;3.508;2023-04-03T07:05:41;8.13;;;5.72;;
56201;SDS011;42117;50.360;3.508;2023-04-03T07:08:09;6.77;;;5.40;;
56201;SDS011;42117;50.360;3.508;2023-04-03T07:10:35;6.93;;;5.78;;
56201;SDS011;42117;50.360;3.508;2023-04-03T07:13:03;9.10;;;6.57;;
56201;SDS011;42117;50.360;3.508;2023-04-03T07:15:29;8.80;;;6.28;;
56201;SDS011;42117;50.360;3.508;2023-04-03T07:17:55;9.10;;;5.72;;
56201;SDS011;42117;50.360;3.508;2023-04-03T07:20:21;8.95;;;5.60;;
56201;SDS011;42117;50.360;3.508;2023-04-03T07:22:47;9.55;;;5.53;;
56201;SDS011;42117;50.360;3.508;2023-04-03T07:25:13;6.23;;;5.10;;
56201;SDS011;42117;50.360;3.508;2023-04-03T07:27:39;11.80;;;5.78;;
56201;SDS011;42117;50.360;3.508;2023-04-03T07:30:06;6.80;;;5.05;;
56201;SDS011;42117;50.360;3.508;2023-04-03T07:32:32;11.90;;;5.68;;
56201;SDS011;42117;50.360;3.508;2023-04-03T07:34:58;8.90;;;5.68;;
56201;SDS011;42117;50.360;3.508;2023-04-03T07:37:24;16.25;;;5.43;;
56201;SDS011;42117;50.360;3.508;2023-04-03T07:39:51;13.57;;;7.10;;
56201;SDS011;42117;50.360;3.508;2023-04-03T07:42:17;11.85;;;5.10;;
56201;SDS011;42117;50.360;3.508;2023-04-03T07:44:43;11.20;;;5.38;;
56201;SDS011;42117;50.360;3.508;2023-04-03T07:47:09;6.32;;;5.57;;
56201;SDS011;42117;50.360;3.508;2023-04-03T07:49:35;9.43;;;5.60;;
56201;SDS011;42117;50.360;3.508;2023-04-03T07:52:04;6.73;;;5.50;;
56201;SDS011;42117;50.360;3.508;2023-04-03T07:54:32;6.07;;;4.78;;
56201;SDS011;42117;50.360;3.508;2023-04-03T07:56:58;11.50;;;5.15;;
56201;SDS011;42117;50.360;3.508;2023-04-03T07:59:24;6.07;;;4.78;;
56201;SDS011;42117;50.360;3.508;2023-04-03T08:01:50;7.10;;;4.88;;
56201;SDS011;42117;50.360;3.508;2023-04-03T08:04:16;6.60;;;4.80;;
56201;SDS011;42117;50.360;3.508;2023-04-03T08:06:42;6.50;;;5.00;;
56201;SDS011;42117;50.360;3.508;2023-04-03T08:09:08;8.65;;;4.53;;
56201;SDS011;42117;50.360;3.508;2023-04-03T08:11:34;7.93;;;4.60;;
56201;SDS011;42117;50.360;3.508;2023-04-03T08:14:01;5.75;;;4.65;;
56201;SDS011;42117;50.360;3.508;2023-04-03T08:16:27;9.07;;;4.80;;
56201;SDS011;42117;50.360;3.508;2023-04-03T08:18:54;6.77;;;4.70;;
56201;SDS011;42117;50.360;3.508;2023-04-03T08:21:20;10.13;;;4.57;;
56201;SDS011;42117;50.360;3.508;2023-04-03T08:23:47;7.93;;;4.43;;
56201;SDS011;42117;50.360;3.508;2023-04-03T08:26:14;5.20;;;3.65;;
56201;SDS011;42117;50.360;3.508;2023-04-03T08:28:41;7.85;;;4.10;;
56201;SDS011;42117;50.360;3.508;2023-04-03T08:31:09;6.13;;;3.65;;
56201;SDS011;42117;50.360;3.508;2023-04-03T08:33:37;3.22;;;2.92;;
56201;SDS011;42117;50.360;3.508;2023-04-03T08:36:03;6.03;;;3.20;;
56201;SDS011;42117;50.360;3.508;2023-04-03T08:38:29;3.80;;;3.45;;
56201;SDS011;42117;50.360;3.508;2023-04-03T08:41:07;4.88;;;3.58;;
56201;SDS011;42117;50.360;3.508;2023-04-03T08:43:50;3.50;;;2.92;;
56201;SDS011;42117;50.360;3.508;2023-04-03T08:46:18;5.30;;;3.22;;
56201;SDS011;42117;50.360;3.508;2023-04-03T08:48:48;4.25;;;3.17;;
56201;SDS011;42117;50.360;3.508;2023-04-03T08:51:15;3.38;;;3.05;;
56201;SDS011;42117;50.360;3.508;2023-04-03T08:53:50;3.55;;;3.08;;
56201;SDS011;42117;50.360;3.508;2023-04-03T08:56:21;4.55;;;3.17;;
56201;SDS011;42117;50.360;3.508;2023-04-03T08:58:50;3.10;;;2.78;;
56201;SDS011;42117;50.360;3.508;2023-04-03T09:03:43;3.17;;;2.72;;
56201;SDS011;42117;50.360;3.508;2023-04-03T09:06:13;2.87;;;2.57;;
56201;SDS011;42117;50.360;3.508;2023-04-03T09:08:43;4.65;;;2.95;;
56201;SDS011;42117;50.360;3.508;2023-04-03T09:11:25;4.72;;;2.72;;
56201;SDS011;42117;50.360;3.508;2023-04-03T09:13:59;2.42;;;2.13;;
56201;SDS011;42117;50.360;3.508;2023-04-03T09:19:09;2.20;;;2.10;;
56201;SDS011;42117;50.360;3.508;2023-04-03T09:21:38;3.15;;;2.30;;
56201;SDS011;42117;50.360;3.508;2023-04-03T09:24:07;2.13;;;1.97;;
56201;SDS011;42117;50.360;3.508;2023-04-03T09:26:42;3.15;;;2.38;;
56201;SDS011;42117;50.360;3.508;2023-04-03T09:29:10;2.58;;;2.38;;
56201;SDS011;42117;50.360;3.508;2023-04-03T09:31:39;4.32;;;2.42;;
56201;SDS011;42117;50.360;3.508;2023-04-03T09:34:13;2.97;;;2.67;;
56201;SDS011;42117;50.360;3.508;2023-04-03T09:36:47;4.18;;;2.85;;
56201;SDS011;42117;50.360;3.508;2023-04-03T09:39:17;4.70;;;2.30;;
56201;SDS011;42117;50.360;3.508;2023-04-03T09:41:54;4.38;;;2.60;;
56201;SDS011;42117;50.360;3.508;2023-04-03T09:44:22;5.03;;;2.30;;
56201;SDS011;42117;50.360;3.508;2023-04-03T09:46:48;2.60;;;2.40;;
56201;SDS011;42117;50.360;3.508;2023-04-03T09:49:15;4.97;;;2.80;;
56201;SDS011;42117;50.360;3.508;2023-04-03T09:51:41;2.67;;;2.47;;
56201;SDS011;42117;50.360;3.508;2023-04-03T09:54:25;4.72;;;2.50;;
56201;SDS011;42117;50.360;3.508;2023-04-03T09:56:52;3.38;;;2.38;;
56201;SDS011;42117;50.360;3.508;2023-04-03T09:59:20;5.05;;;2.50;;
56201;SDS011;42117;50.360;3.508;2023-04-03T10:01:57;3.30;;;2.85;;
56201;SDS011;42117;50.360;3.508;2023-04-03T10:04:23;2.60;;;2.40;;
56201;SDS011;42117;50.360;3.508;2023-04-03T10:06:52;4.60;;;2.80;;
56201;SDS011;42117;50.360;3.508;2023-04-03T10:30:40;3.20;;;2.45;;
56201;SDS011;42117;50.360;3.508;2023-04-03T10:35:25;2.42;;;1.92;;
56201;SDS011;42117;50.360;3.508;2023-04-03T10:37:59;4.15;;;2.40;;
56201;SDS011;42117;50.360;3.508;2023-04-03T10:45:47;4.13;;;3.38;;
56201;SDS011;42117;50.360;3.508;2023-04-03T10:48:17;3.10;;;2.60;;
56201;SDS011;42117;50.360;3.508;2023-04-03T10:50:58;3.20;;;2.60;;
56201;SDS011;42117;50.360;3.508;2023-04-03T10:53:45;11.90;;;6.30;;
56201;SDS011;42117;50.360;3.508;2023-04-03T10:58:43;3.55;;;2.75;;
56201;SDS011;42117;50.360;3.508;2023-04-03T11:01:12;2.55;;;2.35;;
56201;SDS011;42117;50.360;3.508;2023-04-03T11:03:40;2.40;;;2.20;;
56201;SDS011;42117;50.360;3.508;2023-04-03T11:06:08;3.22;;;2.38;;
56201;SDS011;42117;50.360;3.508;2023-04-03T11:08:38;2.60;;;2.40;;
56201;SDS011;42117;50.360;3.508;2023-04-03T11:11:06;5.38;;;2.38;;
56201;SDS011;42117;50.360;3.508;2023-04-03T11:13:35;2.78;;;2.38;;
56201;SDS011;42117;50.360;3.508;2023-04-03T11:16:03;4.68;;;3.05;;
56201;SDS011;42117;50.360;3.508;2023-04-03T11:18:35;4.13;;;2.70;;
56201;SDS011;42117;50.360;3.508;2023-04-03T11:21:04;3.33;;;2.92;;
56201;SDS011;42117;50.360;3.508;2023-04-03T11:23:34;4.35;;;2.50;;
56201;SDS011;42117;50.360;3.508;2023-04-03T11:26:11;3.50;;;2.30;;
56201;SDS011;42117;50.360;3.508;2023-04-03T11:28:37;2.53;;;2.10;;
56201;SDS011;42117;50.360;3.508;2023-04-03T11:33:40;3.08;;;2.30;;
56201;SDS011;42117;50.360;3.508;2023-04-03T11:36:29;5.40;;;2.40;;
56201;SDS011;42117;50.360;3.508;2023-04-03T11:38:56;4.27;;;2.30;;
56201;SDS011;42117;50.360;3.508;2023-04-03T11:41:25;4.80;;;2.55;;
56201;SDS011;42117;50.360;3.508;2023-04-03T11:44:02;5.07;;;2.60;;
56201;SDS011;42117;50.360;3.508;2023-04-03T11:51:59;3.05;;;2.20;;
56201;SDS011;42117;50.360;3.508;2023-04-03T11:59:50;2.85;;;2.15;;
56201;SDS011;42117;50.360;3.508;2023-04-03T12:02:36;3.55;;;2.40;;
56201;SDS011;42117;50.360;3.508;2023-04-03T12:10:32;2.47;;;2.00;;
56201;SDS011;42117;50.360;3.508;2023-04-03T12:12:58;2.75;;;2.10;;
56201;SDS011;42117;50.360;3.508;2023-04-03T12:20:56;4.05;;;2.40;;
56201;SDS011;42117;50.360;3.508;2023-04-03T12:23:32;2.97;;;1.70;;
56201;SDS011;42117;50.360;3.508;2023-04-03T12:26:03;2.30;;;2.00;;
56201;SDS011;42117;50.360;3.508;2023-04-03T12:28:35;4.05;;;2.28;;
56201;SDS011;42117;50.360;3.508;2023-04-03T12:31:02;2.73;;;2.17;;
56201;SDS011;42117;50.360;3.508;2023-04-03T12:33:57;2.28;;;2.00;;
56201;SDS011;42117;50.360;3.508;2023-04-03T12:39:12;4.20;;;2.00;;
56201;SDS011;42117;50.360;3.508;2023-04-03T12:41:46;4.55;;;2.20;;
56201;SDS011;42117;50.360;3.508;2023-04-03T12:46:49;3.25;;;1.95;;
56201;SDS011;42117;50.360;3.508;2023-04-03T12:49:23;3.37;;;1.90;;
56201;SDS011;42117;50.360;3.508;2023-04-03T12:51:52;2.92;;;2.00;;
56201;SDS011;42117;50.360;3.508;2023-04-03T12:57:13;2.72;;;1.70;;
56201;SDS011;42117;50.360;3.508;2023-04-03T12:59:42;3.55;;;1.80;;
56201;SDS011;42117;50.360;3.508;2023-04-03T13:02:16;2.20;;;2.00;;
56201;SDS011;42117;50.360;3.508;2023-04-03T13:04:43;2.15;;;1.80;;
56201;SDS011;42117;50.360;3.508;2023-04-03T13:07:20;2.08;;;1.60;;
56201;SDS011;42117;50.360;3.508;2023-04-03T13:09:55;1.70;;;1.60;;
56201;SDS011;42117;50.360;3.508;2023-04-03T13:12:21;4.75;;;1.63;;
56201;SDS011;42117;50.360;3.508;2023-04-03T13:14:58;4.18;;;1.90;;
56201;SDS011;42117;50.360;3.508;2023-04-03T13:17:25;1.98;;;1.70;;
56201;SDS011;42117;50.360;3.508;2023-04-03T13:19:52;2.92;;;1.77;;
56201;SDS011;42117;50.360;3.508;2023-04-03T13:24:54;5.00;;;2.50;;
56201;SDS011;42117;50.360;3.508;2023-04-03T13:27:22;3.27;;;1.90;;
56201;SDS011;42117;50.360;3.508;2023-04-03T13:29:49;2.40;;;2.10;;
56201;SDS011;42117;50.360;3.508;2023-04-03T13:32:18;2.90;;;1.60;;
56201;SDS011;42117;50.360;3.508;2023-04-03T13:34:45;2.13;;;1.58;;
56201;SDS011;42117;50.360;3.508;2023-04-03T13:37:19;3.63;;;1.60;;
56201;SDS011;42117;50.360;3.508;2023-04-03T13:39:55;4.60;;;2.10;;
56201;SDS011;42117;50.360;3.508;2023-04-03T13:42:23;3.90;;;1.88;;
56201;SDS011;42117;50.360;3.508;2023-04-03T13:45:05;3.10;;;1.80;;
56201;SDS011;42117;50.360;3.508;2023-04-03T13:47:38;3.65;;;1.90;;
56201;SDS011;42117;50.360;3.508;2023-04-03T13:52:44;2.65;;;1.48;;
56201;SDS011;42117;50.360;3.508;2023-04-03T13:57:57;2.13;;;1.90;;
56201;SDS011;42117;50.360;3.508;2023-04-03T14:00:39;3.03;;;1.50;;
56201;SDS011;42117;50.360;3.508;2023-04-03T14:03:12;2.80;;;1.60;;
56201;SDS011;42117;50.360;3.508;2023-04-03T14:05:39;2.92;;;1.50;;
56201;SDS011;42117;50.360;3.508;2023-04-03T14:08:05;1.80;;;1.60;;
56201;SDS011;42117;50.360;3.508;2023-04-03T14:10:32;2.00;;;1.38;;
56201;SDS011;42117;50.360;3.508;2023-04-03T14:12:58;1.50;;;1.40;;
56201;SDS011;42117;50.360;3.508;2023-04-03T14:15:26;5.22;;;1.73;;
56201;SDS011;42117;50.360;3.508;2023-04-03T14:17:53;3.47;;;1.40;;
56201;SDS011;42117;50.360;3.508;2023-04-03T14:20:22;5.15;;;1.50;;
56201;SDS011;42117;50.360;3.508;2023-04-03T14:22:48;2.53;;;1.17;;
56201;SDS011;42117;50.360;3.508;2023-04-03T14:25:16;4.10;;;1.35;;
56201;SDS011;42117;50.360;3.508;2023-04-03T14:27:43;3.78;;;1.45;;
56201;SDS011;42117;50.360;3.508;2023-04-03T14:30:17;1.88;;;1.70;;
56201;SDS011;42117;50.360;3.508;2023-04-03T14:32:44;4.15;;;1.48;;
56201;SDS011;42117;50.360;3.508;2023-04-03T14:35:11;3.17;;;1.50;;
56201;SDS011;42117;50.360;3.508;2023-04-03T14:37:38;3.50;;;1.38;;
56201;SDS011;42117;50.360;3.508;2023-04-03T14:40:05;5.28;;;1.80;;
56201;SDS011;42117;50.360;3.508;2023-04-03T14:42:33;2.95;;;1.75;;
56201;SDS011;42117;50.360;3.508;2023-04-03T14:45:00;3.67;;;1.67;;
56201;SDS011;42117;50.360;3.508;2023-04-03T14:47:28;3.05;;;1.60;;
56201;SDS011;42117;50.360;3.508;2023-04-03T14:49:54;4.13;;;2.10;;
56201;SDS011;42117;50.360;3.508;2023-04-03T14:52:26;3.03;;;1.55;;
56201;SDS011;42117;50.360;3.508;2023-04-03T14:54:52;4.85;;;2.10;;
56201;SDS011;42117;50.360;3.508;2023-04-03T14:57:19;5.13;;;2.28;;
56201;SDS011;42117;50.360;3.508;2023-04-03T14:59:46;4.45;;;1.60;;
56201;SDS011;42117;50.360;3.508;2023-04-03T15:04:41;3.50;;;1.73;;
56201;SDS011;42117;50.360;3.508;2023-04-03T15:07:07;3.22;;;2.13;;
56201;SDS011;42117;50.360;3.508;2023-04-03T15:09:34;4.75;;;2.28;;
56201;SDS011;42117;50.360;3.508;2023-04-03T15:12:01;6.43;;;2.10;;
56201;SDS011;42117;50.360;3.508;2023-04-03T15:14:27;4.47;;;1.83;;
56201;SDS011;42117;50.360;3.508;2023-04-03T15:16:53;3.57;;;1.70;;
56201;SDS011;42117;50.360;3.508;2023-04-03T15:19:19;5.10;;;1.80;;
56201;SDS011;42117;50.360;3.508;2023-04-03T15:21:45;2.38;;;1.40;;
56201;SDS011;42117;50.360;3.508;2023-04-03T15:24:11;2.30;;;1.50;;
56201;SDS011;42117;50.360;3.508;2023-04-03T15:26:37;2.80;;;1.40;;
56201;SDS011;42117;50.360;3.508;2023-04-03T15:29:06;2.60;;;1.50;;
56201;SDS011;42117;50.360;3.508;2023-04-03T15:31:32;1.65;;;1.55;;
56201;SDS011;42117;50.360;3.508;2023-04-03T15:33:58;2.97;;;1.70;;
56201;SDS011;42117;50.360;3.508;2023-04-03T15:36:24;2.25;;;1.50;;
56201;SDS011;42117;50.360;3.508;2023-04-03T15:38:50;1.67;;;1.40;;
56201;SDS011;42117;50.360;3.508;2023-04-03T15:41:16;1.70;;;1.40;;
56201;SDS011;42117;50.360;3.508;2023-04-03T15:43:42;4.40;;;1.75;;
56201;SDS011;42117;50.360;3.508;2023-04-03T15:46:08;3.53;;;1.45;;
56201;SDS011;42117;50.360;3.508;2023-04-03T15:48:35;2.30;;;1.70;;
56201;SDS011;42117;50.360;3.508;2023-04-03T15:51:01;1.55;;;1.45;;
56201;SDS011;42117;50.360;3.508;2023-04-03T15:53:27;3.42;;;1.60;;
56201;SDS011;42117;50.360;3.508;2023-04-03T15:55:53;3.63;;;1.40;;
56201;SDS011;42117;50.360;3.508;2023-04-03T15:58:20;3.45;;;1.58;;
56201;SDS011;42117;50.360;3.508;2023-04-03T16:00:46;2.20;;;1.73;;
56201;SDS011;42117;50.360;3.508;2023-04-03T16:03:12;2.97;;;1.40;;
56201;SDS011;42117;50.360;3.508;2023-04-03T16:05:40;1.80;;;1.60;;